メインページ
METAR-TAF:

METAR-TAF

空港 :

ワガドゥグー空港

ワガドゥグー, ブルキナファソ

緯度: 12-21N, 経度: 001-31W, 海抜: 316m

現時点の気象観測

当レポートは46分前の07:00(UTC)に作成
西/南西の風 4kt
気温 22°C
湿度 94%
気圧 1014 hPa
視程: 8000m
高度2000ftの雲は散在している
高度4000ftの雲はほとんどない, 積乱雲.
激しい雷雨, 小雨

METAR: DFFD 170700Z 24004KT 8000 -TSRA SCT020 FEW040CB 22/21 Q1014 TEMPO 4000 TSRA

時間: 07:46 (07:46 UTC)

予報

当レポートは8時間46分前の23:00(UTC)に作成
予報は17日の 00時(UTC)から 18日の 06時(UTC)まで有効
西/南西の風 8kt
視程10km以上
高度2000ftの雲は散在している
17日の 00時(UTC)から 17日の 08時(UTC)まで一時的に
変向風 25kt、最大40ktの突風を伴う
視程: 2500m
高度2000ftの雲は散在している
高度3300ftの雲は散在している, 積乱雲.
スコール, 激しい雷雨, 雨
17日の 15時(UTC)から 17日の 22時(UTC)まで一時的に
高度2000ftの雲は散在している
高度3300ftの雲はほとんどない, 積乱雲.
激しい雷雨

TAF: DFFD 162300Z 1700/1806 25008KT 9999 SCT020 TEMPO 1700/1708 VRB25G40KT 2500 SQ TSRA SCT020 SCT033CB TEMPO 1715/1722 TS SCT020 FEW033CB

4,000以上の空港の気象観測と天気予報(METAR報とTAF報)

利用可能な観測所は地図上に黄色い丸と赤い丸で示す。

丸の上にカーソルを重ねると観測所名を参照できる。

次にクリックすると気象観測と天気予報を参照できる。

マップの切り替え:黒色「×」印の緑ボタンをクリックして拡大、「-」印の緑ボタンをクリックして縮小、緑色の三角印をクリックして隣りの地図に切り替え


METAR-TAF: